createdAt,value
2023-04-21T00:00:15.854Z,9.73
2023-04-21T00:02:43.599Z,9.82
2023-04-21T00:05:12.585Z,9.55
2023-04-21T00:07:46.064Z,9.77
2023-04-21T00:10:13.811Z,8.77
2023-04-21T00:12:47.634Z,9.48
2023-04-21T00:15:15.163Z,9.15
2023-04-21T00:17:42.701Z,8.85
2023-04-21T00:20:11.691Z,7.80
2023-04-21T00:22:39.305Z,9.18
2023-04-21T00:25:08.064Z,9.35
2023-04-21T00:27:35.625Z,8.70
2023-04-21T00:30:08.099Z,9.70
2023-04-21T00:32:37.887Z,8.73
2023-04-21T00:35:06.188Z,8.68
2023-04-21T00:37:34.337Z,8.82
2023-04-21T00:40:01.956Z,8.20
2023-04-21T00:42:29.576Z,8.85
2023-04-21T00:44:57.485Z,9.07
2023-04-21T00:47:26.757Z,8.55
2023-04-21T00:49:54.876Z,9.43
2023-04-21T00:52:22.764Z,8.43
2023-04-21T00:54:50.766Z,8.00
2023-04-21T00:57:18.723Z,9.18
2023-04-21T00:59:46.375Z,7.70
2023-04-21T01:02:15.859Z,8.13
2023-04-21T01:04:45.722Z,8.05
2023-04-21T01:07:14.093Z,9.38
2023-04-21T01:09:41.833Z,8.50
2023-04-21T01:12:11.219Z,8.85
2023-04-21T01:14:41.915Z,9.10
2023-04-21T01:17:11.682Z,8.93
2023-04-21T01:19:45.758Z,8.95
2023-04-21T01:22:15.292Z,8.50
2023-04-21T01:24:44.681Z,8.60
2023-04-21T01:27:14.118Z,8.85
2023-04-21T01:29:43.719Z,8.82
2023-04-21T01:32:13.510Z,8.57
2023-04-21T01:34:43.780Z,8.15
2023-04-21T01:37:14.431Z,8.48
2023-04-21T01:39:44.964Z,8.48
2023-04-21T01:42:13.429Z,8.15
2023-04-21T01:44:43.807Z,8.48
2023-04-21T01:47:12.492Z,8.88
2023-04-21T01:49:40.555Z,8.63
2023-04-21T01:52:09.956Z,8.43
2023-04-21T01:54:37.651Z,8.98
2023-04-21T01:57:06.655Z,8.82
2023-04-21T01:59:34.467Z,8.80
2023-04-21T02:02:03.336Z,9.43
2023-04-21T02:04:34.374Z,9.00
2023-04-21T02:07:02.324Z,8.38
2023-04-21T02:09:30.187Z,9.00
2023-04-21T02:11:58.048Z,8.82
2023-04-21T02:14:27.326Z,7.63
2023-04-21T02:16:59.066Z,7.88
2023-04-21T02:19:29.527Z,8.15
2023-04-21T02:22:00.257Z,7.95
2023-04-21T02:24:27.916Z,8.38
2023-04-21T02:26:57.547Z,8.88
2023-04-21T02:29:26.654Z,9.32
2023-04-21T02:32:03.012Z,8.23
2023-04-21T02:34:38.784Z,8.38
2023-04-21T02:37:06.480Z,8.77
2023-04-21T02:39:34.062Z,8.63
2023-04-21T02:42:01.986Z,8.55
2023-04-21T02:44:31.116Z,8.48
2023-04-21T02:46:58.738Z,8.10
2023-04-21T02:49:26.333Z,8.02
2023-04-21T02:51:55.031Z,9.43
2023-04-21T02:54:23.683Z,8.00
2023-04-21T02:56:51.360Z,8.10
2023-04-21T02:59:19.452Z,7.85
2023-04-21T03:01:49.214Z,8.40
2023-04-21T03:04:17.306Z,8.15
2023-04-21T03:06:45.281Z,8.02
2023-04-21T03:09:13.269Z,8.45
2023-04-21T03:11:40.821Z,9.25
2023-04-21T03:14:08.348Z,8.90
2023-04-21T03:16:36.007Z,8.52
2023-04-21T03:19:05.016Z,7.60
2023-04-21T03:21:32.757Z,9.23
2023-04-21T03:24:00.384Z,7.55
2023-04-21T03:26:27.928Z,10.35
2023-04-21T03:28:55.634Z,8.55
2023-04-21T03:31:23.271Z,8.70
2023-04-21T03:33:51.054Z,7.65
2023-04-21T03:36:20.004Z,8.45
2023-04-21T03:38:47.605Z,8.40
2023-04-21T03:41:15.216Z,9.68
2023-04-21T03:43:43.107Z,8.60
2023-04-21T03:46:18.678Z,9.00
2023-04-21T03:48:46.666Z,8.65
2023-04-21T03:51:14.984Z,7.82
2023-04-21T03:53:43.959Z,7.85
2023-04-21T03:56:11.909Z,8.73
2023-04-21T03:58:39.470Z,10.23
2023-04-21T04:01:07.649Z,9.80
2023-04-21T04:03:35.458Z,9.07
2023-04-21T04:06:04.222Z,8.50
2023-04-21T04:08:31.999Z,8.15
2023-04-21T04:11:01.014Z,11.15
2023-04-21T04:13:29.397Z,8.55
2023-04-21T04:15:57.849Z,8.25
2023-04-21T04:18:25.474Z,8.25
2023-04-21T04:20:53.104Z,7.82
2023-04-21T04:23:20.662Z,8.05
2023-04-21T04:25:49.332Z,7.93
2023-04-21T04:28:18.297Z,8.75
2023-04-21T04:30:45.847Z,9.15
2023-04-21T04:33:13.501Z,8.02
2023-04-21T04:35:41.087Z,8.15
2023-04-21T04:38:08.654Z,8.57
2023-04-21T04:40:36.187Z,8.30
2023-04-21T04:43:03.761Z,9.18
2023-04-21T04:45:33.145Z,8.38
2023-04-21T04:48:01.042Z,7.82
2023-04-21T04:50:28.642Z,8.80
2023-04-21T04:52:56.367Z,8.43
2023-04-21T04:55:25.448Z,8.90
2023-04-21T04:57:53.099Z,8.13
2023-04-21T05:00:21.366Z,8.88
2023-04-21T05:02:50.336Z,8.68
2023-04-21T05:05:18.050Z,8.60
2023-04-21T05:07:45.773Z,8.60
2023-04-21T05:10:13.308Z,9.10
2023-04-21T05:12:40.989Z,8.50
2023-04-21T05:15:09.704Z,8.65
2023-04-21T05:17:37.338Z,8.52
2023-04-21T05:20:07.866Z,8.65
2023-04-21T05:22:38.042Z,8.10
2023-04-21T05:25:06.333Z,8.43
2023-04-21T05:27:34.946Z,7.38
2023-04-21T05:30:02.550Z,8.82
2023-04-21T05:32:30.314Z,8.82
2023-04-21T05:34:59.836Z,9.02
2023-04-21T05:37:28.788Z,8.63
2023-04-21T05:39:56.328Z,9.02
2023-04-21T05:42:23.899Z,7.95
2023-04-21T05:44:51.436Z,8.55
2023-04-21T05:47:18.998Z,8.40
2023-04-21T05:49:50.408Z,9.63
2023-04-21T05:52:18.600Z,8.35
2023-04-21T05:54:47.528Z,8.55
2023-04-21T05:57:16.293Z,8.80
2023-04-21T05:59:43.960Z,8.88
2023-04-21T06:02:12.235Z,8.20
2023-04-21T06:04:40.104Z,7.82
2023-04-21T06:07:09.660Z,8.32
2023-04-21T06:09:38.306Z,8.20
2023-04-21T06:12:07.867Z,8.65
2023-04-21T06:14:35.640Z,8.00
2023-04-21T06:17:03.307Z,8.38
2023-04-21T06:19:31.022Z,8.48
2023-04-21T06:21:58.673Z,8.75
2023-04-21T06:24:26.290Z,8.23
2023-04-21T06:26:53.985Z,7.63
2023-04-21T06:29:23.140Z,7.82
2023-04-21T06:31:51.091Z,8.55
2023-04-21T06:34:20.875Z,8.57
2023-04-21T06:36:48.618Z,8.35
2023-04-21T06:39:16.337Z,8.45
2023-04-21T06:41:43.998Z,8.77
2023-04-21T06:44:13.983Z,8.73
2023-04-21T06:46:43.509Z,7.82
2023-04-21T06:49:11.955Z,7.63
2023-04-21T06:51:39.949Z,8.32
2023-04-21T06:54:07.904Z,7.78
2023-04-21T06:56:35.633Z,7.32
2023-04-21T06:59:03.424Z,8.05
2023-04-21T07:01:31.158Z,7.53
2023-04-21T07:04:00.909Z,8.27
2023-04-21T07:06:28.701Z,7.35
2023-04-21T07:08:56.647Z,8.15
2023-04-21T07:11:24.551Z,8.65
2023-04-21T07:13:55.465Z,8.45
2023-04-21T07:16:24.506Z,8.10
2023-04-21T07:18:52.217Z,8.10
2023-04-21T07:21:21.118Z,8.27
2023-04-21T07:23:48.757Z,8.13
2023-04-21T07:26:17.992Z,8.38
2023-04-21T07:28:45.562Z,8.18
2023-04-21T07:31:13.157Z,7.35
2023-04-21T07:33:41.077Z,8.07
2023-04-21T07:36:09.309Z,7.93
2023-04-21T07:38:38.660Z,7.75
2023-04-21T07:41:06.639Z,7.13
2023-04-21T07:43:34.440Z,8.15
2023-04-21T07:46:02.149Z,7.40
2023-04-21T07:48:29.881Z,7.07
2023-04-21T07:50:58.267Z,7.78
2023-04-21T07:53:26.657Z,8.38
2023-04-21T07:56:00.258Z,7.15
2023-04-21T07:58:28.573Z,7.53
2023-04-21T08:00:56.432Z,7.90
2023-04-21T08:03:24.754Z,7.55
2023-04-21T08:05:54.197Z,8.02
2023-04-21T08:08:22.078Z,7.50
2023-04-21T08:10:49.871Z,7.72
2023-04-21T08:13:21.034Z,7.30
2023-04-21T08:15:49.423Z,7.97
2023-04-21T08:18:21.223Z,7.60
2023-04-21T08:20:52.392Z,7.00
2023-04-21T08:23:20.426Z,7.10
2023-04-21T08:25:48.357Z,7.85
2023-04-21T08:28:16.272Z,8.90
2023-04-21T08:30:45.325Z,7.05
2023-04-21T08:33:14.006Z,7.20
2023-04-21T08:35:54.908Z,8.50
2023-04-21T08:38:29.484Z,7.63
2023-04-21T08:41:00.969Z,7.20
2023-04-21T08:43:30.016Z,7.45
2023-04-21T08:45:59.374Z,7.82
2023-04-21T08:48:28.936Z,8.13
2023-04-21T08:50:57.234Z,7.80
2023-04-21T08:53:25.174Z,7.43
2023-04-21T08:56:07.694Z,8.38
2023-04-21T08:58:38.972Z,7.25
2023-04-21T09:01:08.096Z,7.57
2023-04-21T09:03:36.041Z,6.55
2023-04-21T09:06:06.115Z,7.25
2023-04-21T09:08:34.724Z,7.97
2023-04-21T09:11:02.540Z,6.85
2023-04-21T09:13:32.343Z,7.38
2023-04-21T09:16:01.045Z,8.15
2023-04-21T09:18:36.351Z,7.38
2023-04-21T09:21:08.873Z,7.38
2023-04-21T09:23:44.052Z,6.82
2023-04-21T09:26:12.074Z,7.50
2023-04-21T09:28:42.830Z,7.40
2023-04-21T09:31:20.112Z,7.35
2023-04-21T09:33:57.613Z,8.18
2023-04-21T09:36:28.844Z,7.70
2023-04-21T09:39:20.458Z,7.80
2023-04-21T09:41:46.950Z,6.70
2023-04-21T09:44:14.822Z,6.90
2023-04-21T09:46:44.710Z,7.43
2023-04-21T09:49:17.429Z,7.72
2023-04-21T09:52:06.101Z,7.28
2023-04-21T09:54:35.248Z,8.98
2023-04-21T09:57:05.159Z,7.38
2023-04-21T09:59:36.146Z,7.22
2023-04-21T10:02:07.280Z,7.00
2023-04-21T10:04:38.527Z,7.13
2023-04-21T10:07:07.543Z,7.40
2023-04-21T10:09:40.179Z,7.70
2023-04-21T10:12:09.692Z,7.15
2023-04-21T10:14:37.743Z,6.72
2023-04-21T10:17:06.876Z,7.05
2023-04-21T10:19:40.070Z,6.57
2023-04-21T10:22:09.571Z,7.43
2023-04-21T10:24:39.935Z,6.22
2023-04-21T10:27:11.779Z,6.75
2023-04-21T10:29:52.523Z,6.88
2023-04-21T10:32:39.933Z,7.82
2023-04-21T10:35:11.865Z,7.07
2023-04-21T10:37:41.386Z,6.32
2023-04-21T10:43:45.929Z,6.70
2023-04-21T10:46:36.309Z,6.18
2023-04-21T10:49:08.853Z,6.45
2023-04-21T10:52:05.505Z,7.25
2023-04-21T10:54:41.558Z,6.55
2023-04-21T10:57:11.340Z,6.20
2023-04-21T10:59:39.844Z,6.43
2023-04-21T11:02:08.833Z,6.72
2023-04-21T11:04:37.077Z,6.20
2023-04-21T11:07:12.090Z,6.78
2023-04-21T11:09:41.431Z,6.80
2023-04-21T11:12:11.171Z,6.68
2023-04-21T11:14:40.563Z,7.32
2023-04-21T11:17:13.597Z,6.75
2023-04-21T11:19:41.644Z,6.75
2023-04-21T11:22:10.665Z,6.80
2023-04-21T11:24:38.379Z,6.15
2023-04-21T11:27:09.346Z,6.95
2023-04-21T11:29:37.046Z,6.47
2023-04-21T11:32:07.629Z,5.80
2023-04-21T11:34:36.427Z,6.15
2023-04-21T11:37:04.020Z,5.95
2023-04-21T11:39:33.071Z,6.43
2023-04-21T11:42:02.085Z,6.38
2023-04-21T11:44:34.533Z,6.20
2023-04-21T11:47:12.994Z,6.13
2023-04-21T11:49:46.351Z,6.45
2023-04-21T11:52:21.432Z,6.97
2023-04-21T11:54:55.633Z,5.55
2023-04-21T11:57:24.636Z,6.63
2023-04-21T11:59:52.562Z,6.65
2023-04-21T12:02:26.396Z,6.75
2023-04-21T12:05:02.963Z,6.53
2023-04-21T12:07:32.463Z,6.10
2023-04-21T12:10:03.097Z,6.25
2023-04-21T12:12:31.080Z,6.28
2023-04-21T12:14:59.152Z,6.43
2023-04-21T12:17:26.862Z,5.68
2023-04-21T12:19:54.687Z,6.82
2023-04-21T12:22:23.677Z,6.22
2023-04-21T12:24:51.358Z,7.10
2023-04-21T12:27:21.610Z,6.20
2023-04-21T12:29:49.260Z,6.10
2023-04-21T12:32:17.100Z,5.95
2023-04-21T12:34:44.796Z,5.82
2023-04-21T12:37:12.426Z,6.25
2023-04-21T12:39:40.066Z,6.15
2023-04-21T12:42:07.665Z,6.30
2023-04-21T12:44:36.653Z,5.93
2023-04-21T12:47:04.255Z,6.15
2023-04-21T12:49:32.155Z,6.35
2023-04-21T12:52:00.477Z,6.32
2023-04-21T12:54:28.097Z,5.60
2023-04-21T12:56:55.898Z,6.53
2023-04-21T12:59:23.453Z,6.20
2023-04-21T13:01:52.475Z,5.82
2023-04-21T13:04:20.400Z,5.90
2023-04-21T13:06:48.247Z,5.78
2023-04-21T13:09:15.832Z,5.85
2023-04-21T13:11:43.368Z,6.03
2023-04-21T13:14:11.109Z,6.10
2023-04-21T13:16:38.911Z,5.97
2023-04-21T13:19:07.780Z,6.15
2023-04-21T13:21:35.486Z,6.38
2023-04-21T13:24:03.310Z,6.18
2023-04-21T13:26:33.474Z,5.97
2023-04-21T13:29:01.044Z,5.60
2023-04-21T13:31:28.834Z,5.97
2023-04-21T13:33:56.697Z,5.68
2023-04-21T13:36:25.736Z,6.38
2023-04-21T13:38:53.864Z,6.40
2023-04-21T13:41:21.634Z,6.70
2023-04-21T13:43:49.810Z,6.00
2023-04-21T13:46:17.459Z,6.15
2023-04-21T13:48:46.196Z,5.35
2023-04-21T13:51:13.880Z,5.55
2023-04-21T13:53:42.801Z,5.55
2023-04-21T13:56:12.510Z,5.97
2023-04-21T13:58:40.151Z,6.25
2023-04-21T14:01:07.995Z,6.55
2023-04-21T14:03:35.998Z,6.10
2023-04-21T14:06:03.863Z,6.20
2023-04-21T14:08:31.454Z,6.07
2023-04-21T14:11:00.452Z,6.45
2023-04-21T14:13:37.311Z,6.53
2023-04-21T14:16:08.231Z,5.90
2023-04-21T14:18:36.384Z,6.47
2023-04-21T14:21:03.973Z,5.80
2023-04-21T14:23:31.506Z,5.97
2023-04-21T14:26:00.767Z,6.88
2023-04-21T14:28:28.666Z,6.28
2023-04-21T14:30:56.168Z,6.88
2023-04-21T14:33:23.771Z,6.45
2023-04-21T14:35:52.143Z,6.53
2023-04-21T14:38:19.892Z,6.65
2023-04-21T14:40:49.649Z,6.43
2023-04-21T14:43:18.611Z,6.57
2023-04-21T14:45:46.285Z,6.78
2023-04-21T14:48:14.760Z,5.68
2023-04-21T14:50:42.427Z,6.35
2023-04-21T14:53:10.105Z,6.15
2023-04-21T14:55:37.675Z,6.50
2023-04-21T14:58:05.248Z,6.65
2023-04-21T15:00:34.745Z,5.88
2023-04-21T15:03:02.554Z,5.72
2023-04-21T15:05:30.422Z,7.15
2023-04-21T15:07:58.040Z,6.47
2023-04-21T15:10:25.535Z,6.63
2023-04-21T15:12:53.288Z,6.43
2023-04-21T15:15:20.890Z,6.00
2023-04-21T15:17:49.983Z,6.32
2023-04-21T15:20:17.560Z,6.20
2023-04-21T15:22:45.244Z,7.07
2023-04-21T15:25:12.774Z,6.75
2023-04-21T15:27:41.118Z,6.10
2023-04-21T15:30:09.514Z,5.53
2023-04-21T15:32:37.085Z,6.22
2023-04-21T15:35:07.097Z,6.40
2023-04-21T15:37:35.066Z,6.15
2023-04-21T15:40:04.660Z,6.57
2023-04-21T15:42:32.366Z,6.32
2023-04-21T15:45:02.066Z,6.22
2023-04-21T15:47:29.622Z,6.03
2023-04-21T15:49:57.115Z,5.90
2023-04-21T15:52:26.209Z,5.53
2023-04-21T15:54:53.792Z,6.03
2023-04-21T15:57:21.529Z,5.35
2023-04-21T15:59:49.044Z,5.82
2023-04-21T16:02:16.804Z,5.95
2023-04-21T16:04:44.913Z,5.18
2023-04-21T16:07:13.015Z,5.20
2023-04-21T16:09:41.951Z,5.22
2023-04-21T16:12:10.481Z,5.80
2023-04-21T16:14:53.580Z,5.22
2023-04-21T16:17:26.701Z,5.63
2023-04-21T16:19:54.452Z,6.47
2023-04-21T16:22:22.118Z,5.35
2023-04-21T16:24:52.899Z,5.65
2023-04-21T16:27:20.861Z,5.43
2023-04-21T16:29:49.033Z,5.15
2023-04-21T16:32:16.661Z,5.68
2023-04-21T16:34:44.232Z,6.22
2023-04-21T16:37:11.860Z,5.60
2023-04-21T16:39:39.492Z,5.93
2023-04-21T16:42:08.388Z,6.43
2023-04-21T16:44:36.206Z,5.93
2023-04-21T16:47:04.172Z,6.28
2023-04-21T16:49:31.787Z,6.00
2023-04-21T16:51:59.447Z,6.20
2023-04-21T16:54:26.996Z,5.82
2023-04-21T16:56:54.576Z,6.53
2023-04-21T16:59:24.476Z,5.80
2023-04-21T17:01:52.299Z,6.28
2023-04-21T17:04:19.933Z,5.88
2023-04-21T17:06:48.423Z,6.03
2023-04-21T17:09:16.038Z,7.28
2023-04-21T17:11:43.819Z,6.45
2023-04-21T17:14:12.553Z,6.40
2023-04-21T17:16:41.567Z,5.97
2023-04-21T17:19:09.106Z,6.38
2023-04-21T17:21:36.827Z,5.80
2023-04-21T17:24:04.706Z,6.32
2023-04-21T17:26:32.364Z,7.55
2023-04-21T17:29:00.367Z,6.95
2023-04-21T17:31:29.432Z,6.07
2023-04-21T17:33:58.476Z,6.47
2023-04-21T17:36:29.256Z,5.82
2023-04-21T17:38:56.902Z,6.35
2023-04-21T17:41:24.710Z,6.28
2023-04-21T17:43:52.488Z,5.55
2023-04-21T17:46:20.133Z,6.18
2023-04-21T17:48:47.760Z,6.30
2023-04-21T17:51:19.114Z,5.93
2023-04-21T17:53:47.049Z,6.68
2023-04-21T17:56:15.276Z,6.63
2023-04-21T17:58:42.972Z,6.57
2023-04-21T18:01:10.584Z,6.43
2023-04-21T18:03:41.345Z,6.63
2023-04-21T18:06:10.613Z,6.25
2023-04-21T18:08:39.601Z,5.28
2023-04-21T18:11:07.246Z,5.78
2023-04-21T18:13:34.863Z,5.93
2023-04-21T18:16:02.394Z,7.20
2023-04-21T18:18:29.968Z,5.93
2023-04-21T18:20:58.532Z,5.47
2023-04-21T18:23:26.282Z,6.15
2023-04-21T18:25:55.185Z,5.78
2023-04-21T18:28:22.762Z,5.95
2023-04-21T18:30:50.988Z,6.90
2023-04-21T18:33:18.841Z,6.90
2023-04-21T18:35:46.398Z,7.13
2023-04-21T18:38:13.973Z,6.63
2023-04-21T18:40:41.840Z,5.88
2023-04-21T18:43:11.152Z,6.00
2023-04-21T18:45:39.427Z,5.97
2023-04-21T18:48:07.023Z,6.75
2023-04-21T18:50:39.342Z,6.30
2023-04-21T18:53:08.047Z,6.00
2023-04-21T18:55:36.405Z,6.03
2023-04-21T18:58:04.156Z,6.25
2023-04-21T19:00:37.013Z,6.20
2023-04-21T19:03:05.438Z,6.05
2023-04-21T19:05:34.887Z,6.05
2023-04-21T19:08:02.503Z,6.07
2023-04-21T19:10:30.155Z,6.10
2023-04-21T19:12:58.117Z,6.40
2023-04-21T19:15:26.252Z,6.60
2023-04-21T19:17:55.925Z,6.50
2023-04-21T19:20:23.560Z,6.72
2023-04-21T19:22:51.348Z,5.97
2023-04-21T19:25:18.952Z,7.32
2023-04-21T19:27:47.751Z,5.63
2023-04-21T19:30:15.985Z,6.90
2023-04-21T19:32:43.477Z,5.82
2023-04-21T19:35:12.443Z,5.80
2023-04-21T19:37:40.192Z,6.18
2023-04-21T19:40:09.280Z,6.63
2023-04-21T19:42:38.879Z,5.88
2023-04-21T19:45:10.068Z,5.75
2023-04-21T19:47:37.698Z,6.22
2023-04-21T19:50:06.410Z,5.97
2023-04-21T19:52:35.454Z,5.82
2023-04-21T19:55:04.547Z,5.57
2023-04-21T19:57:32.165Z,5.72
2023-04-21T19:59:59.704Z,6.32
2023-04-21T20:02:28.322Z,5.88
2023-04-21T20:04:56.126Z,5.50
2023-04-21T20:07:23.864Z,5.15
2023-04-21T20:09:52.895Z,5.50
2023-04-21T20:12:20.666Z,5.63
2023-04-21T20:14:48.209Z,5.35
2023-04-21T20:17:15.873Z,4.70
2023-04-21T20:19:43.474Z,5.15
2023-04-21T20:22:11.080Z,4.97
2023-04-21T20:24:38.607Z,5.60
2023-04-21T20:27:08.803Z,4.88
2023-04-21T20:29:36.749Z,5.97
2023-04-21T20:32:04.664Z,4.70
2023-04-21T20:34:32.289Z,5.32
2023-04-21T20:37:00.050Z,5.53
2023-04-21T20:39:27.785Z,5.45
2023-04-21T20:42:08.817Z,5.10
2023-04-21T20:44:42.258Z,6.45
2023-04-21T20:47:10.994Z,6.97
2023-04-21T20:49:39.820Z,6.43
2023-04-21T20:52:07.770Z,4.97
2023-04-21T20:54:35.438Z,4.88
2023-04-21T20:57:03.189Z,4.38
2023-04-21T20:59:30.802Z,4.70
2023-04-21T21:01:59.865Z,4.80
2023-04-21T21:04:27.586Z,4.38
2023-04-21T21:06:56.009Z,4.63
2023-04-21T21:09:23.601Z,4.72
2023-04-21T21:11:51.182Z,4.53
2023-04-21T21:14:18.824Z,4.72
2023-04-21T21:16:46.405Z,4.82
2023-04-21T21:19:15.648Z,4.28
2023-04-21T21:21:43.245Z,3.88
2023-04-21T21:24:11.451Z,4.20
2023-04-21T21:26:42.541Z,5.07
2023-04-21T21:29:10.482Z,4.65
2023-04-21T21:31:38.138Z,4.20
2023-04-21T21:34:06.048Z,4.68
2023-04-21T21:36:34.980Z,4.43
2023-04-21T21:39:02.658Z,4.60
2023-04-21T21:41:30.333Z,4.75
2023-04-21T21:43:57.818Z,4.28
2023-04-21T21:46:25.449Z,3.97
2023-04-21T21:48:53.044Z,4.57
2023-04-21T21:51:20.626Z,4.78
2023-04-21T21:53:49.616Z,4.90
2023-04-21T21:56:17.128Z,4.22
2023-04-21T21:58:44.740Z,4.80
2023-04-21T22:01:12.334Z,4.18
2023-04-21T22:03:40.153Z,4.35
2023-04-21T22:06:09.146Z,4.40
2023-04-21T22:08:37.217Z,3.97
2023-04-21T22:11:06.766Z,3.78
2023-04-21T22:13:34.346Z,4.25
2023-04-21T22:16:02.306Z,4.20
2023-04-21T22:18:30.221Z,4.38
2023-04-21T22:20:58.942Z,4.07
2023-04-21T22:23:26.790Z,4.30
2023-04-21T22:25:54.438Z,4.60
2023-04-21T22:28:23.399Z,3.88
2023-04-21T22:30:51.267Z,4.15
2023-04-21T22:33:19.553Z,3.95
2023-04-21T22:35:47.164Z,4.43
2023-04-21T22:38:28.795Z,4.20
2023-04-21T22:40:57.078Z,3.83
2023-04-21T22:43:26.125Z,4.10
2023-04-21T22:45:53.773Z,4.18
2023-04-21T22:48:21.423Z,3.58
2023-04-21T22:50:49.008Z,3.88
2023-04-21T22:53:16.533Z,3.80
2023-04-21T22:55:44.261Z,3.55
2023-04-21T22:58:14.311Z,3.38
2023-04-21T23:00:44.931Z,3.28
2023-04-21T23:03:12.687Z,3.83
2023-04-21T23:05:40.936Z,4.22
2023-04-21T23:08:08.470Z,3.70
2023-04-21T23:10:36.252Z,3.75
2023-04-21T23:13:03.868Z,3.40
2023-04-21T23:15:32.055Z,3.67
2023-04-21T23:18:01.076Z,4.00
2023-04-21T23:20:28.777Z,3.55
2023-04-21T23:22:56.383Z,3.28
2023-04-21T23:25:24.131Z,3.70
2023-04-21T23:27:51.719Z,3.47
2023-04-21T23:30:19.485Z,3.45
2023-04-21T23:32:47.189Z,3.47
2023-04-21T23:35:16.128Z,3.28
2023-04-21T23:37:43.724Z,3.40
2023-04-21T23:40:12.611Z,3.70
2023-04-21T23:42:40.270Z,3.45
2023-04-21T23:45:09.312Z,3.92
2023-04-21T23:47:37.271Z,3.53
2023-04-21T23:50:05.694Z,3.33
2023-04-21T23:52:34.955Z,3.28
2023-04-21T23:55:02.627Z,3.47
2023-04-21T23:57:30.182Z,3.58
2023-04-21T23:59:57.978Z,3.90
